createdAt,value
2022-11-12T00:01:19.800Z,8.60
2022-11-12T00:03:40.367Z,9.00
2022-11-12T00:06:01.103Z,8.73
2022-11-12T00:08:21.454Z,8.43
2022-11-12T00:10:41.995Z,9.73
2022-11-12T00:13:02.763Z,8.83
2022-11-12T00:15:23.163Z,8.63
2022-11-12T00:17:43.838Z,10.27
2022-11-12T00:20:06.819Z,10.60
2022-11-12T00:22:27.562Z,9.57
2022-11-12T00:24:50.222Z,8.50
2022-11-12T00:27:10.429Z,9.50
2022-11-12T00:29:30.823Z,9.33
2022-11-12T00:31:51.254Z,8.90
2022-11-12T00:34:11.990Z,8.70
2022-11-12T00:36:36.898Z,8.70
2022-11-12T00:38:57.309Z,8.40
2022-11-12T00:41:18.223Z,8.40
2022-11-12T00:43:38.776Z,10.03
2022-11-12T00:45:59.437Z,9.07
2022-11-12T00:48:20.163Z,9.60
2022-11-12T00:50:40.948Z,8.33
2022-11-12T00:53:01.746Z,9.80
2022-11-12T00:55:22.456Z,8.73
2022-11-12T00:57:43.475Z,9.67
2022-11-12T01:00:06.085Z,11.10
2022-11-12T01:02:26.631Z,7.70
2022-11-12T01:04:47.178Z,8.73
2022-11-12T01:07:08.386Z,10.73
2022-11-12T01:09:28.923Z,9.07
2022-11-12T01:11:49.480Z,9.27
2022-11-12T01:14:11.134Z,8.73
2022-11-12T01:16:36.787Z,13.17
2022-11-12T01:18:59.226Z,11.13
2022-11-12T01:21:19.436Z,11.47
2022-11-12T01:23:42.017Z,10.77
2022-11-12T01:26:12.096Z,9.90
2022-11-12T01:28:32.958Z,11.10
2022-11-12T01:30:53.649Z,8.30
2022-11-12T01:33:14.069Z,11.03
2022-11-12T01:35:34.895Z,11.23
2022-11-12T01:37:55.330Z,9.13
2022-11-12T01:40:17.265Z,9.20
2022-11-12T01:42:39.103Z,9.03
2022-11-12T01:44:59.455Z,9.73
2022-11-12T01:47:29.209Z,10.30
2022-11-12T01:50:03.763Z,7.63
2022-11-12T01:52:35.847Z,10.40
2022-11-12T01:55:01.633Z,14.73
2022-11-12T01:57:35.148Z,12.37
2022-11-12T02:00:02.212Z,7.03
2022-11-12T02:02:22.889Z,11.47
2022-11-12T02:04:44.118Z,10.80
2022-11-12T02:07:07.232Z,9.67
2022-11-12T02:09:28.104Z,7.50
2022-11-12T02:11:48.722Z,8.93
2022-11-12T02:14:09.108Z,11.73
2022-11-12T02:16:44.385Z,8.90
2022-11-12T02:19:07.891Z,6.43
2022-11-12T02:21:28.834Z,8.20
2022-11-12T02:24:26.997Z,11.33
2022-11-12T02:26:51.483Z,7.20
2022-11-12T02:29:12.273Z,8.53
2022-11-12T02:31:32.830Z,9.37
2022-11-12T02:33:53.595Z,7.67
2022-11-12T02:36:14.521Z,8.97
2022-11-12T02:38:34.918Z,8.83
2022-11-12T02:40:56.445Z,8.13
2022-11-12T02:43:16.941Z,6.53
2022-11-12T02:45:37.592Z,5.40
2022-11-12T02:47:58.779Z,5.30
2022-11-12T02:50:19.914Z,4.53
2022-11-12T02:52:40.376Z,4.67
2022-11-12T02:55:00.806Z,4.30
2022-11-12T02:57:21.483Z,7.73
2022-11-12T02:59:41.991Z,11.70
2022-11-12T03:02:02.588Z,13.13
2022-11-12T03:04:22.932Z,12.07
2022-11-12T03:06:43.585Z,11.20
2022-11-12T03:09:04.135Z,11.13
2022-11-12T03:11:24.498Z,9.70
2022-11-12T03:13:45.155Z,9.03
2022-11-12T03:16:06.134Z,9.93
2022-11-12T03:18:26.532Z,7.87
2022-11-12T03:20:51.893Z,10.03
2022-11-12T03:23:12.491Z,6.80
2022-11-12T03:25:34.004Z,7.70
2022-11-12T03:28:14.018Z,7.67
2022-11-12T03:30:37.392Z,6.77
2022-11-12T03:32:59.147Z,8.93
2022-11-12T03:35:19.645Z,7.30
2022-11-12T03:37:40.538Z,6.37
2022-11-12T03:40:01.212Z,4.70
2022-11-12T03:42:21.650Z,5.13
2022-11-12T03:44:42.068Z,7.00
2022-11-12T03:47:02.309Z,6.40
2022-11-12T03:49:22.595Z,6.80
2022-11-12T03:51:43.218Z,7.63
2022-11-12T03:54:04.177Z,7.30
2022-11-12T03:56:24.497Z,5.23
2022-11-12T03:58:44.671Z,5.37
2022-11-12T04:01:05.435Z,5.60
2022-11-12T04:03:27.241Z,6.63
2022-11-12T04:06:07.794Z,6.53
2022-11-12T04:08:37.395Z,5.63
2022-11-12T04:10:57.920Z,4.47
2022-11-12T04:13:27.716Z,5.87
2022-11-12T04:16:07.853Z,5.20
2022-11-12T04:18:47.026Z,6.40
2022-11-12T04:21:27.534Z,5.90
2022-11-12T04:23:49.661Z,6.43
2022-11-12T04:26:25.128Z,6.23
2022-11-12T04:29:05.467Z,5.73
2022-11-12T04:31:25.995Z,4.43
2022-11-12T04:33:46.293Z,5.67
2022-11-12T04:36:06.718Z,5.33
2022-11-12T04:38:27.258Z,4.90
2022-11-12T04:41:06.924Z,7.53
2022-11-12T04:43:46.162Z,6.13
2022-11-12T04:46:06.618Z,5.37
2022-11-12T04:48:27.851Z,6.13
2022-11-12T04:50:52.711Z,4.00
2022-11-12T04:53:14.015Z,5.80
2022-11-12T04:55:34.488Z,5.00
2022-11-12T04:58:00.446Z,5.27
2022-11-12T05:00:21.564Z,4.20
2022-11-12T05:02:42.117Z,6.07
2022-11-12T05:05:03.843Z,6.40
2022-11-12T05:07:24.204Z,5.07
2022-11-12T05:09:44.983Z,5.03
2022-11-12T05:12:07.018Z,4.97
2022-11-12T05:14:27.625Z,4.97
2022-11-12T05:16:48.826Z,4.77
2022-11-12T05:19:09.836Z,5.37
2022-11-12T05:21:49.219Z,4.80
2022-11-12T05:24:22.394Z,4.43
2022-11-12T05:26:50.474Z,6.67
2022-11-12T05:29:11.009Z,6.43
2022-11-12T05:31:32.122Z,5.60
2022-11-12T05:33:52.944Z,6.00
2022-11-12T05:36:13.163Z,4.90
2022-11-12T05:38:33.582Z,4.20
2022-11-12T05:40:53.764Z,4.30
2022-11-12T05:43:14.021Z,6.10
2022-11-12T05:45:34.578Z,5.27
2022-11-12T05:47:55.145Z,4.80
2022-11-12T05:50:15.765Z,3.67
2022-11-12T05:52:36.439Z,3.93
2022-11-12T05:54:59.121Z,3.63
2022-11-12T05:57:19.481Z,3.73
2022-11-12T05:59:39.920Z,3.57
2022-11-12T06:02:00.543Z,4.37
2022-11-12T06:04:24.593Z,3.50
2022-11-12T06:06:44.979Z,3.43
2022-11-12T06:09:05.437Z,4.77
2022-11-12T06:11:25.872Z,3.70
2022-11-12T06:13:46.494Z,3.20
2022-11-12T06:16:07.746Z,3.67
2022-11-12T06:18:28.319Z,3.80
2022-11-12T06:21:07.537Z,3.27
2022-11-12T06:23:28.083Z,3.27
2022-11-12T06:25:48.593Z,3.10
2022-11-12T06:28:08.809Z,3.57
2022-11-12T06:30:31.567Z,3.67
2022-11-12T06:32:52.932Z,3.50
2022-11-12T06:35:14.249Z,4.53
2022-11-12T06:37:34.861Z,3.90
2022-11-12T06:39:55.114Z,4.20
2022-11-12T06:42:16.278Z,4.50
2022-11-12T06:44:36.659Z,3.57
2022-11-12T06:46:56.873Z,5.13
2022-11-12T06:49:17.204Z,5.13
2022-11-12T06:51:39.862Z,5.13
2022-11-12T06:54:00.311Z,3.93
2022-11-12T06:56:20.826Z,4.97
2022-11-12T06:58:41.437Z,5.20
2022-11-12T07:01:16.149Z,4.17
2022-11-12T07:03:37.584Z,2.60
2022-11-12T07:05:58.438Z,3.70
2022-11-12T07:08:18.909Z,4.87
2022-11-12T07:10:39.545Z,5.40
2022-11-12T07:13:00.237Z,4.47
2022-11-12T07:15:20.750Z,5.17
2022-11-12T07:17:45.604Z,3.57
2022-11-12T07:20:06.478Z,3.57
2022-11-12T07:22:26.892Z,3.63
2022-11-12T07:24:47.097Z,4.87
2022-11-12T07:27:07.523Z,4.60
2022-11-12T07:29:46.409Z,4.10
2022-11-12T07:32:07.731Z,3.10
2022-11-12T07:34:28.400Z,3.30
2022-11-12T07:36:51.558Z,3.50
2022-11-12T07:39:13.257Z,3.10
2022-11-12T07:41:33.839Z,3.30
2022-11-12T07:43:54.904Z,3.30
2022-11-12T07:46:18.592Z,3.30
2022-11-12T07:48:40.131Z,2.80
2022-11-12T07:51:24.249Z,2.70
2022-11-12T07:53:45.882Z,3.10
2022-11-12T07:56:06.911Z,2.87
2022-11-12T07:58:30.009Z,3.57
2022-11-12T08:00:51.648Z,3.60
2022-11-12T08:03:12.615Z,11.87
2022-11-12T08:05:34.187Z,7.57
2022-11-12T08:07:58.092Z,5.10
2022-11-12T08:10:18.608Z,4.60
2022-11-12T08:12:38.850Z,4.40
2022-11-12T08:14:59.049Z,3.50
2022-11-12T08:17:20.159Z,3.60
2022-11-12T08:19:40.641Z,3.10
2022-11-12T08:22:01.100Z,2.63
2022-11-12T08:24:21.503Z,3.00
2022-11-12T08:26:42.033Z,3.20
2022-11-12T08:29:08.270Z,3.27
2022-11-12T08:31:29.560Z,4.60
2022-11-12T08:33:50.800Z,3.67
2022-11-12T08:36:13.782Z,3.50
2022-11-12T08:38:34.138Z,3.37
2022-11-12T08:40:54.516Z,3.60
2022-11-12T08:43:15.199Z,6.30
2022-11-12T08:45:38.395Z,6.00
2022-11-12T08:48:00.820Z,5.77
2022-11-12T08:50:21.394Z,5.03
2022-11-12T08:52:42.225Z,4.57
2022-11-12T08:55:02.702Z,4.87
2022-11-12T08:57:23.108Z,4.90
2022-11-12T08:59:43.822Z,4.10
2022-11-12T09:02:04.110Z,3.43
2022-11-12T09:04:24.697Z,5.60
2022-11-12T09:06:47.713Z,3.60
2022-11-12T09:09:11.864Z,5.20
2022-11-12T09:11:33.813Z,3.97
2022-11-12T09:13:54.379Z,3.87
2022-11-12T09:16:14.577Z,4.33
2022-11-12T09:18:36.607Z,5.20
2022-11-12T09:21:14.774Z,4.93
2022-11-12T09:23:37.577Z,4.37
2022-11-12T09:25:58.464Z,4.80
2022-11-12T09:28:19.534Z,5.03
2022-11-12T09:30:46.255Z,5.80
2022-11-12T09:33:06.939Z,5.20
2022-11-12T09:35:27.709Z,4.93
2022-11-12T09:37:48.021Z,4.60
2022-11-12T09:40:17.558Z,5.90
2022-11-12T09:42:38.303Z,5.10
2022-11-12T09:45:13.211Z,8.77
2022-11-12T09:47:38.567Z,6.27
2022-11-12T09:50:13.262Z,5.90
2022-11-12T09:52:33.951Z,5.90
2022-11-12T09:55:18.911Z,6.20
2022-11-12T09:57:39.612Z,5.17
2022-11-12T10:00:02.946Z,5.23
2022-11-12T10:02:52.335Z,5.97
2022-11-12T10:05:28.804Z,5.67
2022-11-12T10:08:05.865Z,5.83
2022-11-12T10:10:45.979Z,5.67
2022-11-12T10:13:24.358Z,6.10
2022-11-12T10:16:32.884Z,5.10
2022-11-12T10:18:56.179Z,5.10
2022-11-12T10:21:33.640Z,4.60
2022-11-12T10:23:55.097Z,4.87
2022-11-12T10:26:21.179Z,4.93
2022-11-12T10:28:53.113Z,5.80
2022-11-12T10:31:17.769Z,5.47
2022-11-12T10:33:38.189Z,9.07
2022-11-12T10:36:12.863Z,7.00
2022-11-12T10:38:35.459Z,5.27
2022-11-12T10:40:56.029Z,4.93
2022-11-12T10:43:19.577Z,5.53
2022-11-12T10:45:40.116Z,4.47
2022-11-12T10:48:00.554Z,4.90
2022-11-12T10:50:37.064Z,4.73
2022-11-12T10:53:07.268Z,4.30
2022-11-12T10:55:30.317Z,4.70
2022-11-12T10:58:11.701Z,4.43
2022-11-12T11:00:33.264Z,4.43
2022-11-12T11:02:55.469Z,4.47
2022-11-12T11:05:36.431Z,5.17
2022-11-12T11:07:57.915Z,4.67
2022-11-12T11:10:36.576Z,4.37
2022-11-12T11:13:19.986Z,5.40
2022-11-12T11:15:40.607Z,5.53
2022-11-12T11:18:01.556Z,5.40
2022-11-12T11:20:34.364Z,5.97
2022-11-12T11:22:59.318Z,6.10
2022-11-12T11:25:27.815Z,14.73
2022-11-12T11:28:12.801Z,8.00
2022-11-12T11:30:34.398Z,5.97
2022-11-12T11:33:33.022Z,16.17
2022-11-12T11:36:05.887Z,7.27
2022-11-12T11:38:54.809Z,6.97
2022-11-12T11:42:06.043Z,8.53
2022-11-12T11:44:49.901Z,7.10
2022-11-12T11:47:22.773Z,6.57
2022-11-12T11:49:55.232Z,7.07
2022-11-12T11:52:45.687Z,7.40
2022-11-12T11:55:49.026Z,7.47
2022-11-12T11:58:17.185Z,6.10
2022-11-12T12:00:57.072Z,6.13
2022-11-12T12:03:19.755Z,5.03
2022-11-12T12:06:11.505Z,5.73
2022-11-12T12:08:41.148Z,5.27
2022-11-12T12:11:13.864Z,5.73
2022-11-12T12:14:06.644Z,5.70
2022-11-12T12:16:54.697Z,5.90
2022-11-12T12:19:27.625Z,5.80
2022-11-12T12:21:51.399Z,5.83
2022-11-12T12:24:32.121Z,5.00
2022-11-12T12:27:00.074Z,4.80
2022-11-12T12:29:39.314Z,4.27
2022-11-12T12:32:30.897Z,4.10
2022-11-12T12:35:06.385Z,4.23
2022-11-12T12:37:45.944Z,2.93
2022-11-12T12:40:31.193Z,4.00
2022-11-12T12:43:00.404Z,3.60
2022-11-12T12:45:36.298Z,3.90
2022-11-12T12:47:58.676Z,4.70
2022-11-12T12:50:21.487Z,4.80
2022-11-12T12:53:04.143Z,4.70
2022-11-12T12:55:35.092Z,4.80
2022-11-12T12:58:00.011Z,4.03
2022-11-12T13:00:38.968Z,4.10
2022-11-12T13:03:00.155Z,4.20
2022-11-12T13:05:34.688Z,4.60
2022-11-12T13:08:01.087Z,3.77
2022-11-12T13:10:39.812Z,3.83
2022-11-12T13:13:23.625Z,3.93
2022-11-12T13:15:48.922Z,3.90
2022-11-12T13:18:16.001Z,5.50
2022-11-12T13:20:40.777Z,5.53
2022-11-12T13:23:01.494Z,5.33
2022-11-12T13:25:22.168Z,5.87
2022-11-12T13:27:45.548Z,5.27
2022-11-12T13:30:09.808Z,5.27
2022-11-12T13:32:46.625Z,5.83
2022-11-12T13:35:21.911Z,5.13
2022-11-12T13:38:02.856Z,6.07
2022-11-12T13:40:26.648Z,6.00
2022-11-12T13:42:50.325Z,6.07
2022-11-12T13:45:13.308Z,5.80
2022-11-12T13:47:34.068Z,5.77
2022-11-12T13:49:55.959Z,5.67
2022-11-12T13:52:20.014Z,5.80
2022-11-12T13:54:40.524Z,6.47
2022-11-12T13:57:25.583Z,5.93
2022-11-12T14:00:07.511Z,6.30
2022-11-12T14:02:27.641Z,5.70
2022-11-12T14:04:49.233Z,5.80
2022-11-12T14:07:39.700Z,5.63
2022-11-12T14:10:18.538Z,5.70
2022-11-12T14:13:07.994Z,4.90
2022-11-12T14:15:50.380Z,4.10
2022-11-12T14:18:32.178Z,4.37
2022-11-12T14:20:52.943Z,3.70
2022-11-12T14:23:24.214Z,4.40
2022-11-12T14:25:56.458Z,4.00
2022-11-12T14:28:31.932Z,3.80
2022-11-12T14:30:52.418Z,3.63
2022-11-12T14:33:20.050Z,3.90
2022-11-12T14:35:40.840Z,3.93
2022-11-12T14:38:18.265Z,3.97
2022-11-12T14:40:49.213Z,3.80
2022-11-12T14:43:27.583Z,3.47
2022-11-12T14:45:50.152Z,4.47
2022-11-12T14:48:10.956Z,4.93
2022-11-12T14:50:39.146Z,5.10
2022-11-12T14:53:11.944Z,4.80
2022-11-12T14:55:36.288Z,5.00
2022-11-12T14:57:58.781Z,4.63
2022-11-12T15:00:38.521Z,4.93
2022-11-12T15:03:01.946Z,4.30
2022-11-12T15:05:23.589Z,4.47
2022-11-12T15:07:59.111Z,5.00
2022-11-12T15:10:41.923Z,4.47
2022-11-12T15:13:19.571Z,5.07
2022-11-12T15:15:51.076Z,5.83
2022-11-12T15:18:24.421Z,6.00
2022-11-12T15:20:45.577Z,6.33
2022-11-12T15:23:06.494Z,7.20
2022-11-12T15:25:30.257Z,7.33
2022-11-12T15:27:54.329Z,8.37
2022-11-12T15:30:18.407Z,8.47
2022-11-12T15:32:38.676Z,8.03
2022-11-12T15:34:59.144Z,7.93
2022-11-12T15:37:19.753Z,7.90
2022-11-12T15:39:49.805Z,8.13
2022-11-12T15:42:26.473Z,7.07
2022-11-12T15:44:48.137Z,6.93
2022-11-12T15:47:18.960Z,7.23
2022-11-12T15:49:48.306Z,6.53
2022-11-12T15:52:08.919Z,7.77
2022-11-12T15:54:29.642Z,6.70
2022-11-12T15:56:50.602Z,6.77
2022-11-12T15:59:15.965Z,6.63
2022-11-12T16:01:36.539Z,6.80
2022-11-12T16:03:57.371Z,6.80
2022-11-12T16:06:17.797Z,6.90
2022-11-12T16:08:38.151Z,6.27
2022-11-12T16:11:00.419Z,5.73
2022-11-12T16:13:29.311Z,5.60
2022-11-12T16:15:51.598Z,4.93
2022-11-12T16:18:12.102Z,5.63
2022-11-12T16:20:34.759Z,5.33
2022-11-12T16:22:55.935Z,4.83
2022-11-12T16:25:19.897Z,4.90
2022-11-12T16:27:41.222Z,5.67
2022-11-12T16:30:01.838Z,5.20
2022-11-12T16:32:22.144Z,5.10
2022-11-12T16:34:42.743Z,5.10
2022-11-12T16:37:03.705Z,4.73
2022-11-12T16:39:24.545Z,5.03
2022-11-12T16:41:46.154Z,4.63
2022-11-12T16:44:06.500Z,5.00
2022-11-12T16:46:34.406Z,5.63
2022-11-12T16:48:55.026Z,6.10
2022-11-12T16:51:17.790Z,6.43
2022-11-12T16:53:38.041Z,6.53
2022-11-12T16:55:58.652Z,5.97
2022-11-12T16:58:19.243Z,5.93
2022-11-12T17:00:41.253Z,6.07
2022-11-12T17:03:01.793Z,5.97
2022-11-12T17:05:24.752Z,5.80
2022-11-12T17:07:45.639Z,5.70
2022-11-12T17:10:06.785Z,5.87
2022-11-12T17:12:27.604Z,5.33
2022-11-12T17:14:48.242Z,5.57
2022-11-12T17:17:08.880Z,5.37
2022-11-12T17:19:29.705Z,5.20
2022-11-12T17:21:50.509Z,6.33
2022-11-12T17:24:11.074Z,5.90
2022-11-12T17:26:33.590Z,6.50
2022-11-12T17:29:00.281Z,6.37
2022-11-12T17:31:23.187Z,5.97
2022-11-12T17:33:49.791Z,5.90
2022-11-12T17:36:13.398Z,5.77
2022-11-12T17:38:37.565Z,7.03
2022-11-12T17:40:58.622Z,8.27
2022-11-12T17:43:18.780Z,7.97
2022-11-12T17:45:48.766Z,7.47
2022-11-12T17:48:09.488Z,7.43
2022-11-12T17:50:30.240Z,6.60
2022-11-12T17:52:50.893Z,7.07
2022-11-12T17:55:11.367Z,6.97
2022-11-12T17:57:31.724Z,6.80
2022-11-12T17:59:52.262Z,8.53
2022-11-12T18:02:12.836Z,9.60
2022-11-12T18:04:33.400Z,9.90
2022-11-12T18:06:54.514Z,9.30
2022-11-12T18:09:15.914Z,9.93
2022-11-12T18:11:48.050Z,9.87
2022-11-12T18:14:09.848Z,9.00
2022-11-12T18:16:30.184Z,7.90
2022-11-12T18:18:51.147Z,8.60
2022-11-12T18:21:11.985Z,6.60
2022-11-12T18:23:35.197Z,7.07
2022-11-12T18:25:55.878Z,7.00
2022-11-12T18:28:16.471Z,9.20
2022-11-12T18:30:37.713Z,9.63
2022-11-12T18:32:58.523Z,7.73
2022-11-12T18:35:18.914Z,7.43
2022-11-12T18:37:39.538Z,7.00
2022-11-12T18:40:00.062Z,7.67
2022-11-12T18:42:20.990Z,7.03
2022-11-12T18:44:41.568Z,6.97
2022-11-12T18:47:02.190Z,7.20
2022-11-12T18:49:22.813Z,6.70
2022-11-12T18:51:44.205Z,6.90
2022-11-12T18:54:04.669Z,6.30
2022-11-12T18:56:25.136Z,5.97
2022-11-12T18:58:46.229Z,6.17
2022-11-12T19:01:10.380Z,6.07
2022-11-12T19:03:30.932Z,5.73
2022-11-12T19:06:02.989Z,5.57
2022-11-12T19:08:23.287Z,6.20
2022-11-12T19:10:43.855Z,6.33
2022-11-12T19:13:05.103Z,5.57
2022-11-12T19:15:26.950Z,5.20
2022-11-12T19:17:47.466Z,4.80
2022-11-12T19:20:08.650Z,5.23
2022-11-12T19:22:29.296Z,5.83
2022-11-12T19:24:50.409Z,6.53
2022-11-12T19:27:11.147Z,8.77
2022-11-12T19:29:32.332Z,10.03
2022-11-12T19:31:52.531Z,11.70
2022-11-12T19:34:13.089Z,11.70
2022-11-12T19:36:34.958Z,12.67
2022-11-12T19:39:00.858Z,13.30
2022-11-12T19:41:21.644Z,13.60
2022-11-12T19:43:42.413Z,13.70
2022-11-12T19:46:03.371Z,13.93
2022-11-12T19:48:24.193Z,12.67
2022-11-12T19:50:44.653Z,15.17
2022-11-12T19:53:05.038Z,13.53
2022-11-12T19:55:28.348Z,14.97
2022-11-12T19:57:48.582Z,13.07
2022-11-12T20:00:11.456Z,13.70
2022-11-12T20:02:31.994Z,14.40
2022-11-12T20:04:52.483Z,13.00
2022-11-12T20:07:13.790Z,14.40
2022-11-12T20:09:36.842Z,13.67
2022-11-12T20:11:57.514Z,12.67
2022-11-12T20:14:18.026Z,9.93
2022-11-12T20:16:39.112Z,8.33
2022-11-12T20:19:01.377Z,7.27
2022-11-12T20:21:23.683Z,9.43
2022-11-12T20:23:45.457Z,6.80
2022-11-12T20:26:12.101Z,6.43
2022-11-12T20:28:34.107Z,6.90
2022-11-12T20:31:01.744Z,7.80
2022-11-12T20:33:22.313Z,7.90
2022-11-12T20:35:42.650Z,7.40
2022-11-12T20:38:04.199Z,7.10
2022-11-12T20:40:24.492Z,7.13
2022-11-12T20:42:45.885Z,8.00
2022-11-12T20:45:06.740Z,7.30
2022-11-12T20:47:27.065Z,7.87
2022-11-12T20:49:47.372Z,7.33
2022-11-12T20:52:08.006Z,6.80
2022-11-12T20:54:28.590Z,7.57
2022-11-12T20:56:50.619Z,8.17
2022-11-12T20:59:10.955Z,7.93
2022-11-12T21:01:31.326Z,8.07
2022-11-12T21:03:51.718Z,8.27
2022-11-12T21:06:15.260Z,7.90
2022-11-12T21:08:36.243Z,7.73
2022-11-12T21:10:58.183Z,10.27
2022-11-12T21:13:20.377Z,10.57
2022-11-12T21:15:46.584Z,10.43
2022-11-12T21:18:07.247Z,10.90
2022-11-12T21:20:27.876Z,10.83
2022-11-12T21:22:48.071Z,6.60
2022-11-12T21:25:08.606Z,6.93
2022-11-12T21:27:29.318Z,5.43
2022-11-12T21:29:49.919Z,4.30
2022-11-12T21:32:11.308Z,4.80
2022-11-12T21:34:32.095Z,4.50
2022-11-12T21:36:53.675Z,4.80
2022-11-12T21:39:13.968Z,4.63
2022-11-12T21:41:34.596Z,4.77
2022-11-12T21:43:55.287Z,4.87
2022-11-12T21:46:24.274Z,4.70
2022-11-12T21:48:46.237Z,4.40
2022-11-12T21:51:09.456Z,4.87
2022-11-12T21:53:29.617Z,4.37
2022-11-12T21:55:51.561Z,4.80
2022-11-12T21:58:11.758Z,4.67
2022-11-12T22:00:41.963Z,4.80
2022-11-12T22:03:03.716Z,4.37
2022-11-12T22:05:24.570Z,4.70
2022-11-12T22:07:45.412Z,5.47
2022-11-12T22:10:06.632Z,6.33
2022-11-12T22:12:27.041Z,7.10
2022-11-12T22:14:47.797Z,7.00
2022-11-12T22:17:08.238Z,7.77
2022-11-12T22:19:28.543Z,7.13
2022-11-12T22:21:49.081Z,7.27
2022-11-12T22:24:11.007Z,7.30
2022-11-12T22:26:31.754Z,6.37
2022-11-12T22:28:57.210Z,6.27
2022-11-12T22:31:20.100Z,6.00
2022-11-12T22:33:42.446Z,5.50
2022-11-12T22:36:07.249Z,4.90
2022-11-12T22:38:32.918Z,4.73
2022-11-12T22:41:01.760Z,4.53
2022-11-12T22:43:22.438Z,4.67
2022-11-12T22:45:43.059Z,5.00
2022-11-12T22:48:03.967Z,5.77
2022-11-12T22:50:24.572Z,5.83
2022-11-12T22:52:50.015Z,6.00
2022-11-12T22:55:11.469Z,5.57
2022-11-12T22:57:32.372Z,5.80
2022-11-12T22:59:57.835Z,5.33
2022-11-12T23:02:18.272Z,5.23
2022-11-12T23:04:41.153Z,5.03
2022-11-12T23:07:01.719Z,4.90
2022-11-12T23:09:23.406Z,4.63
2022-11-12T23:11:44.033Z,4.83
2022-11-12T23:14:05.110Z,4.97
2022-11-12T23:16:30.026Z,4.93
2022-11-12T23:18:52.877Z,5.13
2022-11-12T23:21:16.603Z,6.03
2022-11-12T23:23:37.574Z,6.40
2022-11-12T23:26:20.137Z,6.40
2022-11-12T23:28:40.886Z,6.50
2022-11-12T23:31:02.200Z,6.93
2022-11-12T23:33:22.466Z,6.60
2022-11-12T23:35:42.776Z,7.13
2022-11-12T23:38:03.543Z,7.10
2022-11-12T23:40:28.416Z,6.47
2022-11-12T23:42:52.215Z,6.40
2022-11-12T23:45:12.625Z,6.53
2022-11-12T23:47:33.338Z,5.80
2022-11-12T23:49:54.138Z,5.67
2022-11-12T23:52:14.687Z,5.17
2022-11-12T23:54:36.137Z,5.40
2022-11-12T23:56:56.372Z,5.00
2022-11-12T23:59:16.845Z,4.57
